Terminal Aerodrome Forecast
Issued by NWS Amarillo, TX

Home | Current Version | Previous Version | Text Only | Print | Product List | Glossary On
Versions: 1 2 3 4 5 6 7 8 9 10 11 12 13 14 15 16 17 18 19 20 21 22 23 24
000
FTUS44 KAMA 291700
TAFGUY
TAF
KGUY 291720Z 2918/3018 03011KT P6SM SCT035 BKN080
     FM300400 36015KT P6SM BKN050
     FM300700 36011KT P6SM BKN010
     FM301500 03011KT P6SM SCT010 BKN040=

USA.gov is the U.S. government's official web portal to all federal, state and local government web resources and services.